createdAt,value
2017-12-19T00:00:34.165Z,20.83
2017-12-19T00:03:02.222Z,21.08
2017-12-19T00:05:30.268Z,20.30
2017-12-19T00:07:58.302Z,22.85
2017-12-19T00:10:26.368Z,20.12
2017-12-19T00:12:54.412Z,16.35
2017-12-19T00:15:22.764Z,16.90
2017-12-19T00:17:51.078Z,19.58
2017-12-19T00:20:19.428Z,17.87
2017-12-19T00:22:47.754Z,17.15
2017-12-19T00:25:16.106Z,19.73
2017-12-19T00:27:44.430Z,19.33
2017-12-19T00:30:12.971Z,17.30
2017-12-19T00:32:41.293Z,20.05
2017-12-19T00:35:09.764Z,19.12
2017-12-19T00:37:38.078Z,21.85
2017-12-19T00:40:06.422Z,30.35
2017-12-19T00:42:34.746Z,24.25
2017-12-19T00:45:03.089Z,23.45
2017-12-19T00:47:31.417Z,24.70
2017-12-19T00:49:59.767Z,21.20
2017-12-19T00:52:28.090Z,23.60
2017-12-19T00:54:56.439Z,23.83
2017-12-19T00:57:24.762Z,25.83
2017-12-19T00:59:53.106Z,24.20
2017-12-19T01:02:21.434Z,23.75
2017-12-19T01:04:49.780Z,23.38
2017-12-19T01:07:18.106Z,31.30
2017-12-19T01:09:46.454Z,27.20
2017-12-19T01:12:14.778Z,24.58
2017-12-19T01:14:43.122Z,27.30
2017-12-19T01:17:11.451Z,28.83
2017-12-19T01:19:39.811Z,27.87
2017-12-19T01:22:08.136Z,42.85
2017-12-19T01:24:36.477Z,28.95
2017-12-19T01:27:04.801Z,30.55
2017-12-19T01:29:33.150Z,30.65
2017-12-19T01:32:01.474Z,35.63
2017-12-19T01:34:29.818Z,28.92
2017-12-19T01:36:58.142Z,34.65
2017-12-19T01:39:26.486Z,36.03
2017-12-19T01:41:54.811Z,40.25
2017-12-19T01:44:23.159Z,36.97
2017-12-19T01:46:51.482Z,45.42
2017-12-19T01:49:19.835Z,38.22
2017-12-19T01:51:48.157Z,34.85
2017-12-19T01:54:16.502Z,35.10
2017-12-19T01:56:44.825Z,44.38
2017-12-19T01:59:13.177Z,37.17
2017-12-19T02:01:41.497Z,33.92
2017-12-19T02:04:09.841Z,41.65
2017-12-19T02:06:38.161Z,46.10
2017-12-19T02:09:06.507Z,58.87
2017-12-19T02:11:34.830Z,42.15
2017-12-19T02:14:03.178Z,46.47
2017-12-19T02:16:32.098Z,43.22
2017-12-19T02:19:00.441Z,52.58
2017-12-19T02:21:28.767Z,49.22
2017-12-19T02:23:57.097Z,40.67
2017-12-19T02:26:25.446Z,40.75
2017-12-19T02:28:53.774Z,47.85
2017-12-19T02:31:22.129Z,46.97
2017-12-19T02:33:50.450Z,51.67
2017-12-19T02:36:18.794Z,42.45
2017-12-19T02:38:47.118Z,56.97
2017-12-19T02:41:15.467Z,57.00
2017-12-19T02:43:43.798Z,51.75
2017-12-19T02:46:12.141Z,47.00
2017-12-19T02:48:40.467Z,54.40
2017-12-19T02:51:08.814Z,57.67
2017-12-19T02:53:37.143Z,51.28
2017-12-19T02:56:05.490Z,56.55
2017-12-19T02:58:33.814Z,64.00
2017-12-19T03:01:02.158Z,54.03
2017-12-19T03:03:30.490Z,48.85
2017-12-19T03:05:58.842Z,49.78
2017-12-19T03:08:27.172Z,56.65
2017-12-19T03:10:55.519Z,57.45
2017-12-19T03:13:23.845Z,61.45
2017-12-19T03:15:52.194Z,55.88
2017-12-19T03:18:20.518Z,59.00
2017-12-19T03:20:48.861Z,59.75
2017-12-19T03:23:17.186Z,66.60
2017-12-19T03:25:45.534Z,62.75
2017-12-19T03:28:13.857Z,61.28
2017-12-19T03:30:42.225Z,63.70
2017-12-19T03:33:10.534Z,62.03
2017-12-19T03:35:38.910Z,68.30
2017-12-19T03:38:07.238Z,56.85
2017-12-19T03:40:35.583Z,61.28
2017-12-19T03:43:03.915Z,64.07
2017-12-19T03:45:32.259Z,73.68
2017-12-19T03:48:00.586Z,58.13
2017-12-19T03:50:28.940Z,60.40
2017-12-19T03:52:57.265Z,72.32
2017-12-19T03:55:25.606Z,60.78
2017-12-19T03:57:53.931Z,68.07
2017-12-19T04:00:22.278Z,69.43
2017-12-19T04:02:50.601Z,69.75
2017-12-19T04:05:18.960Z,77.85
2017-12-19T04:07:47.284Z,53.58
2017-12-19T04:10:15.642Z,64.90
2017-12-19T04:12:43.977Z,61.05
2017-12-19T04:15:12.324Z,64.10
2017-12-19T04:17:40.647Z,58.72
2017-12-19T04:20:08.994Z,77.05
2017-12-19T04:22:37.318Z,54.42
2017-12-19T04:25:05.662Z,57.97
2017-12-19T04:27:33.986Z,59.17
2017-12-19T04:30:02.339Z,68.95
2017-12-19T04:32:30.658Z,54.65
2017-12-19T04:34:59.010Z,63.28
2017-12-19T04:37:27.330Z,53.85
2017-12-19T04:39:55.674Z,52.08
2017-12-19T04:42:23.998Z,58.97
2017-12-19T04:44:52.362Z,52.83
2017-12-19T04:47:20.699Z,46.33
2017-12-19T04:49:49.026Z,51.53
2017-12-19T04:52:17.373Z,61.10
2017-12-19T04:54:45.698Z,53.00
2017-12-19T04:57:14.042Z,69.28
2017-12-19T04:59:42.374Z,60.28
2017-12-19T05:02:10.717Z,63.65
2017-12-19T05:04:39.046Z,66.87
2017-12-19T05:07:07.394Z,67.72
2017-12-19T05:09:35.726Z,73.70
2017-12-19T05:12:04.070Z,78.37
2017-12-19T05:14:32.402Z,67.35
2017-12-19T05:17:00.742Z,79.55
2017-12-19T05:19:29.075Z,66.20
2017-12-19T05:21:57.418Z,55.85
2017-12-19T05:24:25.748Z,66.55
2017-12-19T05:26:54.091Z,66.60
2017-12-19T05:29:22.422Z,70.17
2017-12-19T05:31:50.778Z,64.83
2017-12-19T05:34:19.109Z,58.33
2017-12-19T05:36:47.455Z,60.00
2017-12-19T05:39:15.787Z,61.90
2017-12-19T05:41:44.139Z,64.10
2017-12-19T05:44:12.466Z,66.77
2017-12-19T05:46:40.814Z,61.17
2017-12-19T05:49:09.143Z,59.80
2017-12-19T05:51:37.500Z,66.60
2017-12-19T05:54:05.874Z,66.13
2017-12-19T05:56:34.270Z,71.80
2017-12-19T05:59:02.796Z,62.13
2017-12-19T06:01:31.144Z,75.23
2017-12-19T06:03:59.479Z,72.03
2017-12-19T06:06:27.826Z,64.53
2017-12-19T06:08:56.158Z,59.37
2017-12-19T06:11:24.502Z,74.23
2017-12-19T06:13:52.838Z,61.87
2017-12-19T06:16:21.191Z,73.32
2017-12-19T06:18:49.522Z,53.83
2017-12-19T06:21:17.870Z,61.28
2017-12-19T06:23:46.202Z,68.70
2017-12-19T06:26:14.555Z,71.43
2017-12-19T06:28:42.878Z,57.67
2017-12-19T06:31:11.225Z,59.43
2017-12-19T06:33:39.559Z,55.23
2017-12-19T06:36:07.906Z,56.93
2017-12-19T06:38:36.247Z,65.13
2017-12-19T06:41:04.590Z,71.10
2017-12-19T06:43:39.108Z,69.30
2017-12-19T06:46:07.939Z,71.80
2017-12-19T06:48:36.295Z,60.77
2017-12-19T06:51:04.627Z,74.37
2017-12-19T06:53:32.959Z,75.83
2017-12-19T06:56:01.325Z,76.32
2017-12-19T06:58:29.666Z,60.72
2017-12-19T07:00:58.012Z,66.90
2017-12-19T07:03:26.342Z,69.10
2017-12-19T07:05:54.700Z,62.55
2017-12-19T07:08:23.163Z,64.50
2017-12-19T07:10:51.511Z,68.23
2017-12-19T07:13:19.947Z,61.03
2017-12-19T07:15:48.280Z,61.97
2017-12-19T07:18:17.270Z,69.60
2017-12-19T07:20:46.308Z,78.87
2017-12-19T07:23:15.087Z,68.80
2017-12-19T07:25:43.406Z,74.00
2017-12-19T07:28:11.765Z,85.73
2017-12-19T07:30:40.094Z,93.62
2017-12-19T07:33:08.443Z,80.32
2017-12-19T07:35:36.779Z,82.12
2017-12-19T07:38:05.135Z,74.37
2017-12-19T07:40:33.463Z,84.00
2017-12-19T07:43:01.858Z,75.63
2017-12-19T07:45:30.139Z,94.80
2017-12-19T07:47:58.490Z,89.77
2017-12-19T07:50:26.850Z,83.33
2017-12-19T07:52:55.254Z,89.10
2017-12-19T07:55:23.588Z,81.73
2017-12-19T07:57:51.975Z,76.93
2017-12-19T08:00:20.362Z,88.35
2017-12-19T08:02:48.848Z,75.83
2017-12-19T08:05:17.316Z,72.20
2017-12-19T08:07:45.767Z,93.50
2017-12-19T08:10:14.090Z,73.57
2017-12-19T08:12:42.439Z,62.23
2017-12-19T08:15:11.113Z,82.37
2017-12-19T08:17:39.472Z,83.55
2017-12-19T08:20:07.819Z,67.93
2017-12-19T08:22:36.179Z,70.93
2017-12-19T08:25:04.525Z,83.73
2017-12-19T08:27:32.888Z,85.63
2017-12-19T08:30:01.223Z,69.50
2017-12-19T08:32:29.623Z,82.12
2017-12-19T08:34:57.919Z,100.43
2017-12-19T08:37:26.276Z,84.57
2017-12-19T08:39:54.607Z,69.80
2017-12-19T08:42:22.962Z,81.00
2017-12-19T08:44:51.286Z,86.37
2017-12-19T08:47:19.644Z,82.63
2017-12-19T08:49:47.979Z,69.40
2017-12-19T08:52:16.338Z,69.62
2017-12-19T08:54:44.661Z,67.80
2017-12-19T08:57:13.263Z,61.60
2017-12-19T08:59:41.588Z,68.10
2017-12-19T09:02:09.954Z,63.30
2017-12-19T09:04:38.286Z,62.80
2017-12-19T09:07:06.645Z,78.80
2017-12-19T09:09:34.980Z,81.87
2017-12-19T09:12:03.322Z,66.13
2017-12-19T09:14:31.654Z,82.03
2017-12-19T09:17:00.583Z,65.03
2017-12-19T09:19:28.911Z,83.30
2017-12-19T09:21:57.266Z,75.17
2017-12-19T09:24:25.594Z,66.53
2017-12-19T09:26:53.943Z,83.37
2017-12-19T09:29:22.268Z,65.60
2017-12-19T09:31:50.599Z,77.60
2017-12-19T09:34:18.950Z,94.07
2017-12-19T09:36:47.470Z,78.23
2017-12-19T09:39:15.822Z,73.83
2017-12-19T09:41:44.154Z,69.53
2017-12-19T09:44:12.499Z,70.70
2017-12-19T09:46:40.838Z,66.97
2017-12-19T09:49:09.202Z,54.03
2017-12-19T09:51:37.531Z,61.40
2017-12-19T09:54:05.883Z,60.77
2017-12-19T09:56:34.914Z,65.93
2017-12-19T09:59:03.266Z,61.90
2017-12-19T10:01:31.753Z,73.40
2017-12-19T10:04:00.123Z,67.53
2017-12-19T10:06:28.457Z,60.90
2017-12-19T10:08:56.818Z,51.67
2017-12-19T10:11:25.147Z,49.03
2017-12-19T10:13:53.498Z,49.63
2017-12-19T10:16:21.835Z,46.63
2017-12-19T10:18:50.182Z,64.35
2017-12-19T10:21:18.507Z,45.53
2017-12-19T10:23:46.862Z,48.13
2017-12-19T10:26:15.186Z,71.93
2017-12-19T10:28:43.534Z,70.87
2017-12-19T10:31:11.873Z,52.63
2017-12-19T10:33:44.080Z,45.80
2017-12-19T10:36:12.414Z,55.30
2017-12-19T10:38:41.128Z,46.37
2017-12-19T10:41:09.462Z,50.10
2017-12-19T10:43:37.831Z,45.80
2017-12-19T10:46:06.166Z,56.10
2017-12-19T10:48:34.526Z,59.53
2017-12-19T10:51:02.851Z,53.07
2017-12-19T10:53:31.202Z,47.15
2017-12-19T10:55:59.536Z,58.93
2017-12-19T10:58:27.891Z,64.90
2017-12-19T11:00:56.216Z,55.40
2017-12-19T11:03:24.566Z,72.30
2017-12-19T11:05:52.896Z,86.07
2017-12-19T11:08:21.242Z,62.73
2017-12-19T11:10:49.574Z,66.62
2017-12-19T11:13:17.935Z,108.63
2017-12-19T11:15:46.563Z,67.70
2017-12-19T11:18:14.905Z,69.13
2017-12-19T11:20:43.238Z,61.47
2017-12-19T11:23:11.599Z,49.47
2017-12-19T11:25:39.930Z,57.37
2017-12-19T11:28:08.274Z,59.57
2017-12-19T11:30:36.610Z,68.73
2017-12-19T11:33:04.962Z,56.47
2017-12-19T11:35:33.303Z,73.10
2017-12-19T11:38:01.658Z,61.00
2017-12-19T11:40:29.986Z,50.97
2017-12-19T11:42:58.358Z,61.67
2017-12-19T11:45:26.673Z,65.77
2017-12-19T11:47:55.019Z,58.23
2017-12-19T11:50:23.346Z,74.20
2017-12-19T11:52:51.706Z,70.87
2017-12-19T11:55:20.035Z,75.87
2017-12-19T11:57:48.422Z,62.13
2017-12-19T12:00:16.779Z,74.53
2017-12-19T12:02:45.101Z,77.50
2017-12-19T12:05:13.454Z,61.88
2017-12-19T12:07:41.782Z,63.73
2017-12-19T12:10:10.126Z,73.63
2017-12-19T12:12:38.458Z,79.90
2017-12-19T12:15:06.812Z,71.90
2017-12-19T12:17:35.145Z,62.37
2017-12-19T12:20:03.499Z,61.90
2017-12-19T12:22:31.836Z,63.03
2017-12-19T12:25:00.195Z,63.55
2017-12-19T12:27:28.527Z,58.83
2017-12-19T12:29:56.879Z,55.70
2017-12-19T12:32:25.215Z,64.60
2017-12-19T12:34:53.606Z,70.03
2017-12-19T12:37:21.944Z,33.85
2017-12-19T12:39:50.295Z,58.60
2017-12-19T12:42:18.636Z,50.63
2017-12-19T12:44:46.999Z,65.75
2017-12-19T12:47:15.331Z,47.87
2017-12-19T12:49:43.677Z,47.30
2017-12-19T12:52:12.013Z,72.47
2017-12-19T12:54:40.368Z,47.67
2017-12-19T12:57:08.693Z,56.97
2017-12-19T12:59:37.055Z,44.10
2017-12-19T13:02:05.383Z,59.97
2017-12-19T13:04:33.735Z,47.72
2017-12-19T13:07:02.068Z,42.53
2017-12-19T13:09:30.418Z,46.03
2017-12-19T13:11:58.750Z,46.33
2017-12-19T13:14:27.102Z,60.33
2017-12-19T13:16:55.478Z,46.83
2017-12-19T13:19:23.835Z,47.63
2017-12-19T13:21:52.159Z,63.27
2017-12-19T13:24:20.528Z,54.15
2017-12-19T13:26:48.862Z,57.20
2017-12-19T13:29:17.291Z,75.10
2017-12-19T13:31:45.647Z,66.30
2017-12-19T13:34:13.979Z,76.97
2017-12-19T13:36:42.334Z,63.27
2017-12-19T13:39:10.668Z,69.47
2017-12-19T13:41:39.020Z,68.50
2017-12-19T13:44:07.341Z,64.95
2017-12-19T13:46:35.718Z,64.67
2017-12-19T13:49:04.027Z,66.27
2017-12-19T13:51:32.373Z,71.70
2017-12-19T13:54:00.711Z,82.30
2017-12-19T13:56:29.063Z,61.17
2017-12-19T13:58:57.391Z,71.40
2017-12-19T14:01:25.743Z,91.47
2017-12-19T14:03:54.066Z,69.17
2017-12-19T14:06:22.418Z,67.93
2017-12-19T14:08:50.746Z,66.07
2017-12-19T14:11:19.098Z,85.00
2017-12-19T14:13:48.044Z,69.33
2017-12-19T14:16:16.379Z,57.97
2017-12-19T14:18:44.714Z,57.03
2017-12-19T14:21:13.062Z,59.33
2017-12-19T14:23:41.391Z,67.53
2017-12-19T14:26:09.747Z,68.33
2017-12-19T14:28:38.078Z,58.43
2017-12-19T14:31:06.929Z,83.50
2017-12-19T14:33:35.259Z,45.97
2017-12-19T14:36:03.606Z,67.23
2017-12-19T14:38:31.934Z,50.17
2017-12-19T14:41:00.291Z,48.53
2017-12-19T14:43:28.623Z,55.77
2017-12-19T14:45:56.975Z,51.73
2017-12-19T14:48:25.495Z,62.50
2017-12-19T14:50:53.845Z,47.17
2017-12-19T14:53:22.346Z,54.72
2017-12-19T14:55:50.993Z,52.10
2017-12-19T14:58:19.530Z,47.60
2017-12-19T15:00:47.959Z,52.10
2017-12-19T15:03:16.303Z,67.23
2017-12-19T15:05:44.651Z,61.75
2017-12-19T15:08:12.983Z,58.17
2017-12-19T15:10:41.335Z,59.00
2017-12-19T15:13:09.662Z,50.47
2017-12-19T15:15:38.010Z,55.87
2017-12-19T15:18:06.343Z,66.85
2017-12-19T15:20:34.694Z,50.47
2017-12-19T15:23:03.022Z,63.77
2017-12-19T15:25:32.313Z,63.13
2017-12-19T15:28:00.638Z,54.37
2017-12-19T15:30:29.027Z,59.45
2017-12-19T15:32:57.322Z,57.27
2017-12-19T15:35:25.646Z,50.07
2017-12-19T15:37:54.002Z,68.87
2017-12-19T15:40:22.330Z,55.33
2017-12-19T15:42:50.678Z,63.50
2017-12-19T15:45:19.019Z,52.08
2017-12-19T15:47:47.370Z,62.57
2017-12-19T15:50:15.707Z,62.65
2017-12-19T15:52:44.053Z,68.93
2017-12-19T15:55:12.386Z,82.47
2017-12-19T15:57:40.738Z,78.03
2017-12-19T16:00:09.064Z,77.03
2017-12-19T16:02:37.685Z,50.53
2017-12-19T16:05:06.047Z,47.40
2017-12-19T16:07:34.430Z,64.23
2017-12-19T16:10:02.759Z,66.43
2017-12-19T16:12:32.236Z,60.55
2017-12-19T16:15:00.550Z,68.97
2017-12-19T16:17:28.903Z,51.33
2017-12-19T16:19:57.230Z,55.60
2017-12-19T16:22:25.598Z,70.63
2017-12-19T16:24:56.822Z,59.37
2017-12-19T16:27:25.179Z,61.83
2017-12-19T16:29:53.510Z,65.33
2017-12-19T16:32:22.508Z,64.13
2017-12-19T16:34:50.841Z,58.93
2017-12-19T16:37:19.199Z,63.47
2017-12-19T16:39:47.662Z,59.42
2017-12-19T16:42:16.040Z,56.13
2017-12-19T16:44:44.510Z,64.10
2017-12-19T16:47:13.154Z,75.07
2017-12-19T16:49:41.511Z,72.43
2017-12-19T16:52:09.854Z,65.90
2017-12-19T16:54:38.183Z,53.10
2017-12-19T16:57:06.540Z,50.17
2017-12-19T16:59:34.876Z,54.17
2017-12-19T17:02:03.222Z,60.40
2017-12-19T17:04:31.550Z,61.65
2017-12-19T17:06:59.908Z,59.23
2017-12-19T17:09:28.240Z,59.20
2017-12-19T17:11:56.587Z,56.17
2017-12-19T17:14:24.915Z,51.07
2017-12-19T17:16:53.267Z,50.90
2017-12-19T17:19:21.595Z,42.10
2017-12-19T17:21:49.946Z,50.33
2017-12-19T17:24:18.271Z,48.20
2017-12-19T17:26:46.619Z,44.80
2017-12-19T17:29:14.953Z,54.47
2017-12-19T17:31:43.699Z,61.35
2017-12-19T17:34:12.018Z,51.53
2017-12-19T17:36:40.346Z,44.30
2017-12-19T17:39:08.699Z,54.77
2017-12-19T17:41:37.019Z,49.03
2017-12-19T17:44:05.370Z,48.63
2017-12-19T17:46:33.694Z,53.20
2017-12-19T17:49:02.047Z,58.20
2017-12-19T17:51:30.374Z,55.17
2017-12-19T17:53:58.722Z,52.23
2017-12-19T17:56:27.054Z,52.20
2017-12-19T17:58:55.403Z,53.40
2017-12-19T18:01:23.735Z,63.38
2017-12-19T18:03:52.081Z,50.30
2017-12-19T18:06:20.411Z,63.95
2017-12-19T18:08:48.762Z,57.03
2017-12-19T18:11:18.015Z,69.47
2017-12-19T18:13:46.363Z,49.27
2017-12-19T18:16:14.693Z,54.17
2017-12-19T18:18:43.043Z,73.10
2017-12-19T18:21:11.366Z,63.13
2017-12-19T18:23:39.718Z,51.00
2017-12-19T18:26:08.045Z,68.07
2017-12-19T18:28:36.390Z,63.10
2017-12-19T18:31:04.927Z,70.25
2017-12-19T18:33:33.413Z,66.90
2017-12-19T18:36:01.743Z,68.63
2017-12-19T18:38:30.099Z,89.77
2017-12-19T18:40:58.431Z,51.73
2017-12-19T18:43:26.778Z,72.12
2017-12-19T18:45:55.114Z,65.03
2017-12-19T18:48:24.302Z,84.10
2017-12-19T18:50:52.637Z,63.13
2017-12-19T18:53:20.989Z,57.97
2017-12-19T18:55:49.317Z,71.78
2017-12-19T18:58:17.669Z,64.38
2017-12-19T19:00:45.999Z,87.13
2017-12-19T19:03:14.351Z,52.73
2017-12-19T19:05:42.990Z,66.57
2017-12-19T19:08:11.346Z,64.63
2017-12-19T19:10:39.671Z,63.40
2017-12-19T19:13:08.064Z,53.37
2017-12-19T19:15:36.347Z,65.00
2017-12-19T19:18:04.695Z,70.80
2017-12-19T19:20:33.018Z,66.83
2017-12-19T19:23:01.375Z,54.33
2017-12-19T19:25:30.536Z,66.53
2017-12-19T19:27:58.886Z,65.40
2017-12-19T19:30:27.219Z,63.20
2017-12-19T19:32:55.579Z,67.17
2017-12-19T19:35:23.963Z,66.37
2017-12-19T19:37:52.338Z,76.80
2017-12-19T19:40:20.668Z,62.90
2017-12-19T19:42:48.999Z,58.67
2017-12-19T19:45:18.251Z,70.53
2017-12-19T19:47:46.580Z,66.53
2017-12-19T19:50:15.855Z,57.43
2017-12-19T19:52:44.336Z,73.90
2017-12-19T19:55:14.126Z,72.35
2017-12-19T19:57:43.351Z,72.15
2017-12-19T20:00:11.703Z,71.57
2017-12-19T20:02:40.033Z,77.45
2017-12-19T20:05:08.396Z,88.37
2017-12-19T20:07:36.731Z,68.13
2017-12-19T20:10:05.086Z,62.87
2017-12-19T20:12:33.422Z,69.27
2017-12-19T20:15:01.767Z,75.03
2017-12-19T20:17:31.042Z,78.07
2017-12-19T20:19:59.397Z,67.57
2017-12-19T20:22:27.726Z,62.17
2017-12-19T20:24:56.082Z,69.93
2017-12-19T20:27:24.454Z,59.30
2017-12-19T20:29:52.815Z,61.75
2017-12-19T20:32:21.160Z,56.92
2017-12-19T20:34:49.737Z,64.00
2017-12-19T20:37:18.830Z,58.13
2017-12-19T20:39:47.619Z,51.47
2017-12-19T20:42:16.260Z,51.70
2017-12-19T20:44:45.192Z,52.03
2017-12-19T20:47:13.876Z,40.35
2017-12-19T20:49:42.315Z,55.07
2017-12-19T20:52:10.663Z,51.78
2017-12-19T20:54:39.063Z,48.73
2017-12-19T20:57:07.408Z,50.97
2017-12-19T20:59:35.863Z,40.20
2017-12-19T21:02:04.213Z,44.83
2017-12-19T21:04:32.665Z,48.55
2017-12-19T21:07:01.302Z,37.67
2017-12-19T21:09:30.397Z,42.03
2017-12-19T21:11:58.824Z,36.57
2017-12-19T21:14:27.249Z,36.30
2017-12-19T21:16:55.558Z,38.17
2017-12-19T21:19:23.966Z,38.83
2017-12-19T21:21:52.336Z,41.20
2017-12-19T21:24:20.687Z,32.73
2017-12-19T21:26:49.013Z,41.10
2017-12-19T21:29:17.451Z,36.20
2017-12-19T21:31:45.767Z,35.17
2017-12-19T21:34:14.134Z,43.90
2017-12-19T21:36:42.465Z,38.33
2017-12-19T21:39:10.910Z,44.17
2017-12-19T21:41:40.177Z,37.10
2017-12-19T21:44:08.808Z,47.28
2017-12-19T21:46:37.236Z,46.93
2017-12-19T21:49:05.641Z,50.17
2017-12-19T21:51:34.003Z,44.47
2017-12-19T21:54:02.458Z,51.83
2017-12-19T21:56:31.099Z,38.73
2017-12-19T21:58:59.526Z,38.13
2017-12-19T22:01:28.309Z,42.50
2017-12-19T22:03:56.706Z,33.03
2017-12-19T22:06:25.186Z,37.33
2017-12-19T22:08:53.514Z,36.70
2017-12-19T22:11:22.014Z,35.70
2017-12-19T22:13:50.342Z,30.33
2017-12-19T22:16:18.790Z,35.83
2017-12-19T22:18:47.118Z,33.47
2017-12-19T22:21:15.540Z,37.73
2017-12-19T22:23:43.910Z,33.20
2017-12-19T22:26:12.266Z,30.20
2017-12-19T22:28:40.589Z,33.13
2017-12-19T22:31:09.928Z,34.35
2017-12-19T22:33:38.602Z,38.47
2017-12-19T22:36:07.387Z,36.15
2017-12-19T22:38:35.806Z,40.27
2017-12-19T22:41:04.156Z,37.60
2017-12-19T22:43:32.500Z,40.65
2017-12-19T22:46:00.859Z,38.83
2017-12-19T22:48:29.182Z,33.97
2017-12-19T22:50:57.606Z,31.90
2017-12-19T22:53:25.930Z,33.13
2017-12-19T22:55:54.258Z,36.07
2017-12-19T22:58:22.610Z,35.83
2017-12-19T23:00:51.421Z,28.50
2017-12-19T23:03:19.775Z,31.20
2017-12-19T23:05:48.171Z,36.80
2017-12-19T23:08:16.905Z,35.60
2017-12-19T23:10:45.252Z,31.67
2017-12-19T23:13:13.706Z,27.73
2017-12-19T23:15:42.843Z,30.88
2017-12-19T23:18:11.190Z,30.13
2017-12-19T23:20:39.559Z,28.10
2017-12-19T23:23:07.911Z,29.57
2017-12-19T23:25:36.238Z,28.97
2017-12-19T23:28:04.688Z,22.73
2017-12-19T23:30:33.014Z,23.80
2017-12-19T23:33:01.450Z,26.45
2017-12-19T23:35:29.805Z,21.30
2017-12-19T23:37:58.146Z,27.00
2017-12-19T23:40:26.469Z,23.80
2017-12-19T23:42:54.819Z,24.52
2017-12-19T23:45:23.150Z,29.65
2017-12-19T23:47:51.614Z,19.02
2017-12-19T23:50:19.934Z,27.65
2017-12-19T23:52:48.458Z,24.30
2017-12-19T23:55:16.786Z,18.80
2017-12-19T23:57:45.127Z,22.25
